(°C)
14°
14°
13°
12°
12°
11°
11°
(°C)
ΔΒΔ
ΔΒΔ
ΔΒΔ
ΔΒΔ
ΔΒΔ
ΔΒΔ
ΔΒΔ
(χλμ / ω)
17-37
19-32
16-29
13-24
14-26
15-29
15-28
(χιλιοστά)
0.2
0
0
0
0
0
0
(%)
35
12
4
3
3
2
1

Ανύψωση ήλιου

/ 11.5°
sun-icon
UV 2
07:22
19:00
Αύξων μηνίσκος (φάση σελήνης) (83°)
15:45
22:17

METAR για Bordenau (ETNW)

Χρόνος Συνθήκες Θερμοκρασία/
Σημείο δρόσου
Άνεμος Ορατότητα Καιρός Νέφη Πίεση Αλλαγή Ανεπεξέργαστο
VFR 14°C / 10°C 290º 9kt >10km - Few Clouds 1500ft
Few Clouds 2000ft
Scattered Clouds 6000ft
1016 - ETNW 021520Z 29009KT 9999 FEW015 FEW020CB SCT060 14/10 Q1016 BLU+
VFR 14°C / 11°C 320º 14kt Gust 24kt >10km in the Vicinity Showers Vertical Visibility of 0ft.
Scattered Clouds 2000ft
Broken Clouds 6000ft
1016 - ETNW 021450Z 32014G24KT 9999 VCSH FEW015 SCT020CB BKN060 14/11 Q1016 BLU
MVFR 15°C / 10°C 300º 14kt Gust 28kt 9000m Light Showers Rain 3.00mm precipitation Vertical Visibility of 0ft.
Broken Clouds 2000ft
1016 - ETNW 021440Z 30014G28KT 9000 -SHRA FEW015 BKN020CB 15/10 Q1016 WHT
VFR 17°C / 11°C 290º 12kt >10km in the Vicinity Showers Vertical Visibility of 0ft.
Broken Clouds 7500ft
1015 - ETNW 021420Z 29012KT 9999 VCSH FEW028CB BKN075 17/11 Q1015 BLU
VFR 15°C / 12°C 280º 9kt >10km - Few Clouds 1500ft
Scattered Clouds 8000ft
1015 - ETNW 021320Z 28009KT 9999 FEW015 SCT080 15/12 Q1015 BLU+
VFR 15°C / 13°C 300º 13kt 9000m in the Vicinity Showers Vertical Visibility of 0ft.
Few Clouds 2000ft
Scattered Clouds 10000ft
1015 - ETNW 021220Z 30013KT 9000 VCSH FEW010 FEW020CB SCT100 15/13 Q1015 BLU+
MVFR 14°C / 12°C 320º 12kt 8000m Light Showers Rain 3.00mm precipitation Vertical Visibility of 0ft.
Broken Clouds 2500ft
1015 - ETNW 021120Z 32012KT 8000 -SHRA FEW015 BKN025TCU 14/12 Q1015 RESHRA BLU
MVFR 15°C / 11°C 300º 15kt 6000m Showers Rain 3.00mm precipitation Vertical Visibility of 0ft.
Broken Clouds 2500ft
1015 - ETNW 021110Z 30015KT 6000 SHRA FEW015 BKN025TCU 15/11 Q1015 WHT
VFR 17°C / 11°C 290º 13kt >10km - Scattered Clouds 2400ft
Scattered Clouds 27000ft
1014 - ETNW 021020Z 29013KT 9999 SCT024 SCT270 17/11 Q1014 BLU+
VFR 15°C / 11°C 280º 13kt >10km - Scattered Clouds 1600ft
Scattered Clouds 27000ft
1014 - ETNW 020920Z 28013KT 9999 SCT016 SCT270 15/11 Q1014 BLU+
VFR 14°C / 12°C 270º 12kt >10km - Scattered Clouds 1400ft 1014 - ETNW 020820Z 27012KT 9999 SCT014 14/12 Q1014 BLU+
VFR 13°C / 12°C 260º 10kt >10km - Few Clouds 3000ft
Scattered Clouds 7000ft
1013 - ETNW 020720Z 26010KT 9999 FEW030 SCT070 13/12 Q1013 BLU+
VFR 12°C / 11°C 250º 10kt >10km - Few Clouds 3000ft
Broken Clouds 7000ft
1012 - ETNW 020620Z 25010KT 9999 FEW030 BKN070 12/11 Q1012 BLU
VFR 12°C / 11°C 250º 11kt >10km - Few Clouds 3000ft
Scattered Clouds 10000ft
1012 - ETNW 020520Z 25011KT 9999 FEW030TCU SCT100 12/11 Q1012 BLU+
VFR 12°C / 11°C 250º 13kt 9000m Light Showers Rain 3.00mm precipitation Vertical Visibility of 0ft.
Scattered Clouds 3000ft
Broken Clouds 6000ft
1012 - ETNW 020450Z 25013KT 9000 -SHRA FEW010 SCT030TCU BKN060 12/11 Q1012 BLU
MVFR 12°C / 11°C 260º 12kt 7000m Light Showers Rain 3.00mm precipitation Vertical Visibility of 0ft.
Broken Clouds 3000ft
1012 - ETNW 020435Z 26012KT 7000 -SHRA FEW010 BKN030TCU 12/11 Q1012 WHT
VFR 12°C / 11°C 260º 12kt >10km Light Showers Rain 3.00mm precipitation Vertical Visibility of 0ft.
Broken Clouds 8000ft
1012 - ETNW 020420Z 26012KT 9999 -SHRA SCT030TCU BKN080 12/11 Q1012 BLU
VFR 12°C / 11°C 260º 11kt >10km - Broken Clouds 7600ft 1012 - ETNW 020320Z 26011KT 9999 BKN076 12/11 Q1012 BLU
VFR 12°C / 11°C 250º 12kt >10km - Few Clouds 7000ft 1012 - ETNW 020220Z 25012KT 9999 FEW070 12/11 Q1012 BLU+
VFR 12°C / 11°C 260º 10kt >10km - Scattered Clouds 3200ft
Broken Clouds 7000ft
1012 - ETNW 020120Z 26010KT 9999 SCT032CB BKN070 12/11 Q1012 BLU
VFR 12°C / 11°C 300º 7kt >10km Light Showers Rain 3.00mm precipitation Vertical Visibility of 0ft.
Broken Clouds 7000ft
1011 - ETNW 020020Z 30007KT 9999 -SHRA SCT032 BKN070 12/11 Q1011 BLU
VFR 11°C / 10°C 240º 13kt >10km - Few Clouds 7000ft 1011 - ETNW 012320Z 24013KT 9999 FEW070 11/10 Q1011 BLU+
VFR 12°C / 10°C 260º 8kt >10km - Few Clouds 3000ft 1011 - ETNW 012220Z 26008KT 9999 FEW030 12/10 Q1011 BLU+
VFR 11°C / 10°C 260º 6kt >10km - Few Clouds 8500ft 1010 - ETNW 012120Z 26006KT 9999 FEW085 11/10 Q1010 BLU+

VFR

14°C / 10°C

[Περισσότερο]
Άνεμος 290º 9kt
Ορατότητα >10km
Καιρός -
Νέφη Few Clouds 1500ft
Few Clouds 2000ft
Scattered Clouds 6000ft
Πίεση 1016
Αλλαγή -
Ανεπεξέργαστο ETNW 021520Z 29009KT 9999 FEW015 FEW020CB SCT060 14/10 Q1016 BLU+

VFR

14°C / 11°C

[Περισσότερο]
Άνεμος 320º 14kt Gust 24kt
Ορατότητα >10km
Καιρός in the Vicinity Showers
Νέφη Vertical Visibility of 0ft.
Scattered Clouds 2000ft
Broken Clouds 6000ft
Πίεση 1016
Αλλαγή -
Ανεπεξέργαστο ETNW 021450Z 32014G24KT 9999 VCSH FEW015 SCT020CB BKN060 14/11 Q1016 BLU

MVFR

15°C / 10°C

[Περισσότερο]
Άνεμος 300º 14kt Gust 28kt
Ορατότητα 9000m
Καιρός Light Showers Rain 3.00mm precipitation
Νέφη Vertical Visibility of 0ft.
Broken Clouds 2000ft
Πίεση 1016
Αλλαγή -
Ανεπεξέργαστο ETNW 021440Z 30014G28KT 9000 -SHRA FEW015 BKN020CB 15/10 Q1016 WHT

VFR

17°C / 11°C

[Περισσότερο]
Άνεμος 290º 12kt
Ορατότητα >10km
Καιρός in the Vicinity Showers
Νέφη Vertical Visibility of 0ft.
Broken Clouds 7500ft
Πίεση 1015
Αλλαγή -
Ανεπεξέργαστο ETNW 021420Z 29012KT 9999 VCSH FEW028CB BKN075 17/11 Q1015 BLU

VFR

15°C / 12°C

[Περισσότερο]
Άνεμος 280º 9kt
Ορατότητα >10km
Καιρός -
Νέφη Few Clouds 1500ft
Scattered Clouds 8000ft
Πίεση 1015
Αλλαγή -
Ανεπεξέργαστο ETNW 021320Z 28009KT 9999 FEW015 SCT080 15/12 Q1015 BLU+

VFR

15°C / 13°C

[Περισσότερο]
Άνεμος 300º 13kt
Ορατότητα 9000m
Καιρός in the Vicinity Showers
Νέφη Vertical Visibility of 0ft.
Few Clouds 2000ft
Scattered Clouds 10000ft
Πίεση 1015
Αλλαγή -
Ανεπεξέργαστο ETNW 021220Z 30013KT 9000 VCSH FEW010 FEW020CB SCT100 15/13 Q1015 BLU+

MVFR

14°C / 12°C

[Περισσότερο]
Άνεμος 320º 12kt
Ορατότητα 8000m
Καιρός Light Showers Rain 3.00mm precipitation
Νέφη Vertical Visibility of 0ft.
Broken Clouds 2500ft
Πίεση 1015
Αλλαγή -
Ανεπεξέργαστο ETNW 021120Z 32012KT 8000 -SHRA FEW015 BKN025TCU 14/12 Q1015 RESHRA BLU

MVFR

15°C / 11°C

[Περισσότερο]
Άνεμος 300º 15kt
Ορατότητα 6000m
Καιρός Showers Rain 3.00mm precipitation
Νέφη Vertical Visibility of 0ft.
Broken Clouds 2500ft
Πίεση 1015
Αλλαγή -
Ανεπεξέργαστο ETNW 021110Z 30015KT 6000 SHRA FEW015 BKN025TCU 15/11 Q1015 WHT

VFR

17°C / 11°C

[Περισσότερο]
Άνεμος 290º 13kt
Ορατότητα >10km
Καιρός -
Νέφη Scattered Clouds 2400ft
Scattered Clouds 27000ft
Πίεση 1014
Αλλαγή -
Ανεπεξέργαστο ETNW 021020Z 29013KT 9999 SCT024 SCT270 17/11 Q1014 BLU+

VFR

15°C / 11°C

[Περισσότερο]
Άνεμος 280º 13kt
Ορατότητα >10km
Καιρός -
Νέφη Scattered Clouds 1600ft
Scattered Clouds 27000ft
Πίεση 1014
Αλλαγή -
Ανεπεξέργαστο ETNW 020920Z 28013KT 9999 SCT016 SCT270 15/11 Q1014 BLU+

VFR

14°C / 12°C

[Περισσότερο]
Άνεμος 270º 12kt
Ορατότητα >10km
Καιρός -
Νέφη Scattered Clouds 1400ft
Πίεση 1014
Αλλαγή -
Ανεπεξέργαστο ETNW 020820Z 27012KT 9999 SCT014 14/12 Q1014 BLU+

VFR

13°C / 12°C

[Περισσότερο]
Άνεμος 260º 10kt
Ορατότητα >10km
Καιρός -
Νέφη Few Clouds 3000ft
Scattered Clouds 7000ft
Πίεση 1013
Αλλαγή -
Ανεπεξέργαστο ETNW 020720Z 26010KT 9999 FEW030 SCT070 13/12 Q1013 BLU+

VFR

12°C / 11°C

[Περισσότερο]
Άνεμος 250º 10kt
Ορατότητα >10km
Καιρός -
Νέφη Few Clouds 3000ft
Broken Clouds 7000ft
Πίεση 1012
Αλλαγή -
Ανεπεξέργαστο ETNW 020620Z 25010KT 9999 FEW030 BKN070 12/11 Q1012 BLU

VFR

12°C / 11°C

[Περισσότερο]
Άνεμος 250º 11kt
Ορατότητα >10km
Καιρός -
Νέφη Few Clouds 3000ft
Scattered Clouds 10000ft
Πίεση 1012
Αλλαγή -
Ανεπεξέργαστο ETNW 020520Z 25011KT 9999 FEW030TCU SCT100 12/11 Q1012 BLU+

VFR

12°C / 11°C

[Περισσότερο]
Άνεμος 250º 13kt
Ορατότητα 9000m
Καιρός Light Showers Rain 3.00mm precipitation
Νέφη Vertical Visibility of 0ft.
Scattered Clouds 3000ft
Broken Clouds 6000ft
Πίεση 1012
Αλλαγή -
Ανεπεξέργαστο ETNW 020450Z 25013KT 9000 -SHRA FEW010 SCT030TCU BKN060 12/11 Q1012 BLU

MVFR

12°C / 11°C

[Περισσότερο]
Άνεμος 260º 12kt
Ορατότητα 7000m
Καιρός Light Showers Rain 3.00mm precipitation
Νέφη Vertical Visibility of 0ft.
Broken Clouds 3000ft
Πίεση 1012
Αλλαγή -
Ανεπεξέργαστο ETNW 020435Z 26012KT 7000 -SHRA FEW010 BKN030TCU 12/11 Q1012 WHT

VFR

12°C / 11°C

[Περισσότερο]
Άνεμος 260º 12kt
Ορατότητα >10km
Καιρός Light Showers Rain 3.00mm precipitation
Νέφη Vertical Visibility of 0ft.
Broken Clouds 8000ft
Πίεση 1012
Αλλαγή -
Ανεπεξέργαστο ETNW 020420Z 26012KT 9999 -SHRA SCT030TCU BKN080 12/11 Q1012 BLU

VFR

12°C / 11°C

[Περισσότερο]
Άνεμος 260º 11kt
Ορατότητα >10km
Καιρός -
Νέφη Broken Clouds 7600ft
Πίεση 1012
Αλλαγή -
Ανεπεξέργαστο ETNW 020320Z 26011KT 9999 BKN076 12/11 Q1012 BLU

VFR

12°C / 11°C

[Περισσότερο]
Άνεμος 250º 12kt
Ορατότητα >10km
Καιρός -
Νέφη Few Clouds 7000ft
Πίεση 1012
Αλλαγή -
Ανεπεξέργαστο ETNW 020220Z 25012KT 9999 FEW070 12/11 Q1012 BLU+

VFR

12°C / 11°C

[Περισσότερο]
Άνεμος 260º 10kt
Ορατότητα >10km
Καιρός -
Νέφη Scattered Clouds 3200ft
Broken Clouds 7000ft
Πίεση 1012
Αλλαγή -
Ανεπεξέργαστο ETNW 020120Z 26010KT 9999 SCT032CB BKN070 12/11 Q1012 BLU

VFR

12°C / 11°C

[Περισσότερο]
Άνεμος 300º 7kt
Ορατότητα >10km
Καιρός Light Showers Rain 3.00mm precipitation
Νέφη Vertical Visibility of 0ft.
Broken Clouds 7000ft
Πίεση 1011
Αλλαγή -
Ανεπεξέργαστο ETNW 020020Z 30007KT 9999 -SHRA SCT032 BKN070 12/11 Q1011 BLU

VFR

11°C / 10°C

[Περισσότερο]
Άνεμος 240º 13kt
Ορατότητα >10km
Καιρός -
Νέφη Few Clouds 7000ft
Πίεση 1011
Αλλαγή -
Ανεπεξέργαστο ETNW 012320Z 24013KT 9999 FEW070 11/10 Q1011 BLU+

VFR

12°C / 10°C

[Περισσότερο]
Άνεμος 260º 8kt
Ορατότητα >10km
Καιρός -
Νέφη Few Clouds 3000ft
Πίεση 1011
Αλλαγή -
Ανεπεξέργαστο ETNW 012220Z 26008KT 9999 FEW030 12/10 Q1011 BLU+

VFR

11°C / 10°C

[Περισσότερο]
Άνεμος 260º 6kt
Ορατότητα >10km
Καιρός -
Νέφη Few Clouds 8500ft
Πίεση 1010
Αλλαγή -
Ανεπεξέργαστο ETNW 012120Z 26006KT 9999 FEW085 11/10 Q1010 BLU+

TAF για Bordenau (ETNW)

From till


From till Wind 280º 10kt. Visibility 10km or more. Few Clouds 2500ft.
Temporarly from till Wind 290º 12kt. Gust 22kt. Visibility 4000m. Light Showers Rain . Scattered Clouds 1000ft. Broken Clouds 2000ft.
Temporarly from till Wind 290º 10kt. Visibility 4000m. Mist . Broken Clouds 1200ft.

Ανεπεξέργαστο: TAF ETNW 021011Z 0211/0311 28010KT 9999 NSW FEW025 TEMPO 0211/0215 29012G22KT 4000 -SHRA SCT010 BKN020TCU TEMPO 0220/0307 29010KT 4000 BR BKN012 BY ETGL

rainNOW: Nowcast βροχής για Bordenau και περιφέρεια (25km ακτίνα)

0.0 χιλιοστά
0.0 χιλιοστά
0.0 χιλιοστά
0.0 χιλιοστά
0.0 χιλιοστά
0.0 χιλιοστά
0.0 χιλιοστά
0.0 χιλιοστά
0.0 χιλιοστά
0.0 χιλιοστά
0.0 χιλιοστά
0.0 χιλιοστά

Ραντάρ για Bordenau

Ψιλοβρέχει
Φως
Μέτρια
Βαριά
Πολύ βαρύ
Χαλάζι

Ο δείκτης θέσης τοποθετείται στο Bordenau. Αυτή η κινούμενη εικόνα δείχνει την ραντάρ βροχόπτωσης για την τελευταία ώρα, καθώς και 2πρόγνωση h. Το ψιλόβροχο ή το ελαφρύ χιόνι μπορεί να είναι αόρατο για το ραντάρ. Η ένταση της βροχόπτωσης είναι χρωματικά κωδικοποιημένη και κυμαίνεται από γαλάζιο έως πορτοκαλί.
Copyright 2022 Deutscher Wetterdienst / meteoblue.

Τρέχουσες εικόνες δορυφόρου και βροχής για Bordenau, Γερμανία

Η ένδειξη τοποθεσίας τοποθετείται στο Bordenau. [Περισσότερο]

Οι δορυφορικές εικόνες σε πραγματικό χρόνο συνδυάζουν ορατό φως κατά τη διάρκεια της ημέρας με υπέρυθρη ακτινοβολία κατά τη διάρκεια της νύχτας. Κατά τη διάρκεια της νύχτας, η εικόνα δεν είναι σκοτεινή μιας και η υπέρυθρη ακτινοβολία μπορεί να εντοπίσει τις διαφορές στη θερμοκρασία. Δυστυχώς, είναι δύσκολο να ξεχωρίσουν οι χαμηλές νεφώσεις και η ομίχλη από τις θερμοκρασίες εδάφους και έτσι μπορεί να είναι σχετικά αόρατα κατά τη διάρκεια της νύχτας. Οι εικόνες από τον δορυφόρο Meteosat για την Ευρώπη ενημερώνονται σε πραγματικό χρόνο κάθε 5 λεπτά. Οι εικόνες από τους δορυφόρους GOES-16/GOES-17 (Βόρεια & Λατινική Αμερική) και Himawari (Ασία) ενημερώνονται κάθε 10 λεπτά.

Η βροχόπτωση εκτιμάται από ραντάρ και δορυφόρους. Οι εκτιμήσεις βροχόπτωσης από τους δορυφόρους είναι λιγότερο ακριβείς τη νύχτα απ' ό,τι κατά τη διάρκεια της ημέρας. Με πορτοκαλί σταυροούς οι θέσεις όπου αστραπές εντοπίζονται (για Ευρώπη).

Πνευματική ιδιοκτησία 2022 EUMETSAT / meteoblue. Δεδομένα αστραπών παρεχόμενα από nowcast.

Επιστροφή στην κορυφή